sensor_id;sensor_type;location;lat;lon;timestamp;P1;durP1;ratioP1;P2;durP2;ratioP2
17947;SDS011;9099;47.958;11.366;2023-09-18T00:00:30;2.30;;;2.20;;
17947;SDS011;9099;47.958;11.366;2023-09-18T00:02:58;3.22;;;2.75;;
17947;SDS011;9099;47.958;11.366;2023-09-18T00:05:27;2.50;;;2.30;;
17947;SDS011;9099;47.958;11.366;2023-09-18T00:07:54;4.40;;;2.50;;
17947;SDS011;9099;47.958;11.366;2023-09-18T00:10:21;2.78;;;2.58;;
17947;SDS011;9099;47.958;11.366;2023-09-18T00:12:51;2.60;;;2.50;;
17947;SDS011;9099;47.958;11.366;2023-09-18T00:15:18;2.50;;;2.40;;
17947;SDS011;9099;47.958;11.366;2023-09-18T00:17:45;2.80;;;2.53;;
17947;SDS011;9099;47.958;11.366;2023-09-18T00:20:11;3.20;;;3.00;;
17947;SDS011;9099;47.958;11.366;2023-09-18T00:22:38;2.53;;;2.33;;
17947;SDS011;9099;47.958;11.366;2023-09-18T00:25:05;2.60;;;2.40;;
17947;SDS011;9099;47.958;11.366;2023-09-18T00:27:33;2.38;;;2.28;;
17947;SDS011;9099;47.958;11.366;2023-09-18T00:30:03;2.72;;;2.45;;
17947;SDS011;9099;47.958;11.366;2023-09-18T00:32:31;2.70;;;2.50;;
17947;SDS011;9099;47.958;11.366;2023-09-18T00:34:58;2.47;;;2.28;;
17947;SDS011;9099;47.958;11.366;2023-09-18T00:37:25;3.15;;;2.67;;
17947;SDS011;9099;47.958;11.366;2023-09-18T00:39:51;2.60;;;2.40;;
17947;SDS011;9099;47.958;11.366;2023-09-18T00:42:18;3.33;;;2.40;;
17947;SDS011;9099;47.958;11.366;2023-09-18T00:44:47;3.88;;;2.60;;
17947;SDS011;9099;47.958;11.366;2023-09-18T00:47:16;2.88;;;2.63;;
17947;SDS011;9099;47.958;11.366;2023-09-18T00:49:45;2.83;;;2.58;;
17947;SDS011;9099;47.958;11.366;2023-09-18T00:52:14;2.55;;;2.40;;
17947;SDS011;9099;47.958;11.366;2023-09-18T00:54:43;2.20;;;2.10;;
17947;SDS011;9099;47.958;11.366;2023-09-18T00:57:11;2.88;;;2.47;;
17947;SDS011;9099;47.958;11.366;2023-09-18T00:59:38;3.03;;;2.83;;
17947;SDS011;9099;47.958;11.366;2023-09-18T01:02:05;2.60;;;2.42;;
17947;SDS011;9099;47.958;11.366;2023-09-18T01:04:34;2.55;;;2.35;;
17947;SDS011;9099;47.958;11.366;2023-09-18T01:07:01;2.65;;;2.45;;
17947;SDS011;9099;47.958;11.366;2023-09-18T01:09:29;2.60;;;2.40;;
17947;SDS011;9099;47.958;11.366;2023-09-18T01:11:59;2.35;;;2.25;;
17947;SDS011;9099;47.958;11.366;2023-09-18T01:14:31;2.60;;;2.40;;
17947;SDS011;9099;47.958;11.366;2023-09-18T01:17:03;2.33;;;2.22;;
17947;SDS011;9099;47.958;11.366;2023-09-18T01:19:38;3.03;;;2.22;;
17947;SDS011;9099;47.958;11.366;2023-09-18T01:22:06;2.50;;;2.08;;
17947;SDS011;9099;47.958;11.366;2023-09-18T01:24:35;2.42;;;2.20;;
17947;SDS011;9099;47.958;11.366;2023-09-18T01:27:04;2.33;;;2.22;;
17947;SDS011;9099;47.958;11.366;2023-09-18T01:29:33;2.38;;;2.28;;
17947;SDS011;9099;47.958;11.366;2023-09-18T01:32:00;2.53;;;1.92;;
17947;SDS011;9099;47.958;11.366;2023-09-18T01:34:28;2.60;;;2.25;;
17947;SDS011;9099;47.958;11.366;2023-09-18T01:36:58;4.00;;;2.10;;
17947;SDS011;9099;47.958;11.366;2023-09-18T01:39:28;3.47;;;2.22;;
17947;SDS011;9099;47.958;11.366;2023-09-18T01:41:58;2.45;;;2.17;;
17947;SDS011;9099;47.958;11.366;2023-09-18T01:44:26;2.63;;;2.50;;
17947;SDS011;9099;47.958;11.366;2023-09-18T01:46:53;2.50;;;2.30;;
17947;SDS011;9099;47.958;11.366;2023-09-18T01:49:29;2.65;;;2.45;;
17947;SDS011;9099;47.958;11.366;2023-09-18T01:51:58;2.17;;;2.08;;
17947;SDS011;9099;47.958;11.366;2023-09-18T01:54:25;2.40;;;2.20;;
17947;SDS011;9099;47.958;11.366;2023-09-18T01:56:52;2.22;;;2.13;;
17947;SDS011;9099;47.958;11.366;2023-09-18T01:59:21;2.47;;;2.38;;
17947;SDS011;9099;47.958;11.366;2023-09-18T02:01:48;3.45;;;2.42;;
17947;SDS011;9099;47.958;11.366;2023-09-18T02:04:15;2.90;;;2.50;;
17947;SDS011;9099;47.958;11.366;2023-09-18T02:06:42;2.50;;;2.28;;
17947;SDS011;9099;47.958;11.366;2023-09-18T02:09:09;2.30;;;2.20;;
17947;SDS011;9099;47.958;11.366;2023-09-18T02:11:36;2.45;;;2.30;;
17947;SDS011;9099;47.958;11.366;2023-09-18T02:14:04;2.38;;;2.20;;
17947;SDS011;9099;47.958;11.366;2023-09-18T02:16:33;2.47;;;2.28;;
17947;SDS011;9099;47.958;11.366;2023-09-18T02:19:01;2.50;;;2.30;;
17947;SDS011;9099;47.958;11.366;2023-09-18T02:21:28;2.30;;;2.20;;
17947;SDS011;9099;47.958;11.366;2023-09-18T02:23:55;3.08;;;2.45;;
17947;SDS011;9099;47.958;11.366;2023-09-18T02:26:23;2.30;;;2.10;;
17947;SDS011;9099;47.958;11.366;2023-09-18T02:28:51;2.50;;;2.30;;
17947;SDS011;9099;47.958;11.366;2023-09-18T02:31:19;2.75;;;2.40;;
17947;SDS011;9099;47.958;11.366;2023-09-18T02:33:47;2.20;;;2.00;;
17947;SDS011;9099;47.958;11.366;2023-09-18T02:36:14;2.60;;;2.50;;
17947;SDS011;9099;47.958;11.366;2023-09-18T02:38:41;2.35;;;2.25;;
17947;SDS011;9099;47.958;11.366;2023-09-18T02:41:09;2.58;;;2.08;;
17947;SDS011;9099;47.958;11.366;2023-09-18T02:43:36;2.47;;;2.10;;
17947;SDS011;9099;47.958;11.366;2023-09-18T02:46:03;2.50;;;2.30;;
17947;SDS011;9099;47.958;11.366;2023-09-18T02:48:30;3.30;;;2.38;;
17947;SDS011;9099;47.958;11.366;2023-09-18T02:50:59;2.20;;;2.00;;
17947;SDS011;9099;47.958;11.366;2023-09-18T02:53:26;2.15;;;1.95;;
17947;SDS011;9099;47.958;11.366;2023-09-18T02:55:53;3.50;;;2.28;;
17947;SDS011;9099;47.958;11.366;2023-09-18T02:58:21;3.22;;;2.22;;
17947;SDS011;9099;47.958;11.366;2023-09-18T03:00:51;3.58;;;2.15;;
17947;SDS011;9099;47.958;11.366;2023-09-18T03:03:20;2.60;;;2.40;;
17947;SDS011;9099;47.958;11.366;2023-09-18T03:05:46;2.67;;;2.47;;
17947;SDS011;9099;47.958;11.366;2023-09-18T03:08:15;4.47;;;2.15;;
17947;SDS011;9099;47.958;11.366;2023-09-18T03:10:42;2.38;;;2.17;;
17947;SDS011;9099;47.958;11.366;2023-09-18T03:13:10;2.30;;;2.10;;
17947;SDS011;9099;47.958;11.366;2023-09-18T03:15:39;4.35;;;2.55;;
17947;SDS011;9099;47.958;11.366;2023-09-18T03:18:06;2.35;;;2.15;;
17947;SDS011;9099;47.958;11.366;2023-09-18T03:20:33;4.03;;;2.30;;
17947;SDS011;9099;47.958;11.366;2023-09-18T03:23:01;2.42;;;1.90;;
17947;SDS011;9099;47.958;11.366;2023-09-18T03:25:30;2.35;;;2.13;;
17947;SDS011;9099;47.958;11.366;2023-09-18T03:27:57;2.40;;;2.20;;
17947;SDS011;9099;47.958;11.366;2023-09-18T03:30:24;2.10;;;2.00;;
17947;SDS011;9099;47.958;11.366;2023-09-18T03:32:51;2.42;;;2.22;;
17947;SDS011;9099;47.958;11.366;2023-09-18T03:35:20;3.30;;;2.58;;
17947;SDS011;9099;47.958;11.366;2023-09-18T03:37:48;2.75;;;2.50;;
17947;SDS011;9099;47.958;11.366;2023-09-18T03:40:16;2.53;;;2.15;;
17947;SDS011;9099;47.958;11.366;2023-09-18T03:42:45;2.50;;;2.30;;
17947;SDS011;9099;47.958;11.366;2023-09-18T03:45:12;3.47;;;2.33;;
17947;SDS011;9099;47.958;11.366;2023-09-18T03:47:39;3.17;;;2.30;;
17947;SDS011;9099;47.958;11.366;2023-09-18T03:50:07;2.90;;;2.30;;
17947;SDS011;9099;47.958;11.366;2023-09-18T03:52:35;2.30;;;2.00;;
17947;SDS011;9099;47.958;11.366;2023-09-18T03:55:04;2.45;;;2.22;;
17947;SDS011;9099;47.958;11.366;2023-09-18T03:57:31;2.55;;;2.10;;
17947;SDS011;9099;47.958;11.366;2023-09-18T03:59:59;3.47;;;2.22;;
17947;SDS011;9099;47.958;11.366;2023-09-18T04:02:26;2.05;;;1.95;;
17947;SDS011;9099;47.958;11.366;2023-09-18T04:04:54;2.15;;;1.92;;
17947;SDS011;9099;47.958;11.366;2023-09-18T04:07:20;2.40;;;2.20;;
17947;SDS011;9099;47.958;11.366;2023-09-18T04:09:47;3.08;;;2.42;;
17947;SDS011;9099;47.958;11.366;2023-09-18T04:12:14;2.42;;;1.77;;
17947;SDS011;9099;47.958;11.366;2023-09-18T04:14:41;2.30;;;2.13;;
17947;SDS011;9099;47.958;11.366;2023-09-18T04:17:10;1.80;;;1.70;;
17947;SDS011;9099;47.958;11.366;2023-09-18T04:19:37;2.65;;;2.13;;
17947;SDS011;9099;47.958;11.366;2023-09-18T04:22:04;2.75;;;2.22;;
17947;SDS011;9099;47.958;11.366;2023-09-18T04:24:30;2.65;;;2.30;;
17947;SDS011;9099;47.958;11.366;2023-09-18T04:26:57;4.10;;;1.85;;
17947;SDS011;9099;47.958;11.366;2023-09-18T04:29:24;2.15;;;2.05;;
17947;SDS011;9099;47.958;11.366;2023-09-18T04:31:51;2.70;;;2.10;;
17947;SDS011;9099;47.958;11.366;2023-09-18T04:34:20;2.55;;;2.35;;
17947;SDS011;9099;47.958;11.366;2023-09-18T04:36:47;5.55;;;2.00;;
17947;SDS011;9099;47.958;11.366;2023-09-18T04:39:14;3.53;;;2.10;;
17947;SDS011;9099;47.958;11.366;2023-09-18T04:41:41;3.03;;;2.20;;
17947;SDS011;9099;47.958;11.366;2023-09-18T04:44:08;2.42;;;2.22;;
17947;SDS011;9099;47.958;11.366;2023-09-18T04:46:37;2.33;;;2.10;;
17947;SDS011;9099;47.958;11.366;2023-09-18T04:49:07;3.28;;;2.13;;
17947;SDS011;9099;47.958;11.366;2023-09-18T04:51:37;3.00;;;2.10;;
17947;SDS011;9099;47.958;11.366;2023-09-18T04:54:04;2.50;;;2.30;;
17947;SDS011;9099;47.958;11.366;2023-09-18T04:56:31;3.72;;;2.47;;
17947;SDS011;9099;47.958;11.366;2023-09-18T04:58:58;3.35;;;2.17;;
17947;SDS011;9099;47.958;11.366;2023-09-18T05:01:25;3.05;;;2.05;;
17947;SDS011;9099;47.958;11.366;2023-09-18T05:03:52;3.15;;;2.33;;
17947;SDS011;9099;47.958;11.366;2023-09-18T05:06:19;2.75;;;2.33;;
17947;SDS011;9099;47.958;11.366;2023-09-18T05:08:48;4.10;;;2.28;;
17947;SDS011;9099;47.958;11.366;2023-09-18T05:11:14;2.20;;;2.03;;
17947;SDS011;9099;47.958;11.366;2023-09-18T05:13:43;4.72;;;2.30;;
17947;SDS011;9099;47.958;11.366;2023-09-18T05:16:11;3.35;;;2.15;;
17947;SDS011;9099;47.958;11.366;2023-09-18T05:18:38;2.53;;;2.33;;
17947;SDS011;9099;47.958;11.366;2023-09-18T05:21:06;3.40;;;2.58;;
17947;SDS011;9099;47.958;11.366;2023-09-18T05:23:34;3.05;;;2.15;;
17947;SDS011;9099;47.958;11.366;2023-09-18T05:26:03;2.80;;;2.60;;
17947;SDS011;9099;47.958;11.366;2023-09-18T05:28:29;3.05;;;2.45;;
17947;SDS011;9099;47.958;11.366;2023-09-18T05:30:56;4.82;;;2.40;;
17947;SDS011;9099;47.958;11.366;2023-09-18T05:33:23;4.30;;;2.20;;
17947;SDS011;9099;47.958;11.366;2023-09-18T05:35:50;4.25;;;2.22;;
17947;SDS011;9099;47.958;11.366;2023-09-18T05:38:17;3.55;;;2.22;;
17947;SDS011;9099;47.958;11.366;2023-09-18T05:40:44;2.97;;;2.20;;
17947;SDS011;9099;47.958;11.366;2023-09-18T05:43:13;2.25;;;2.05;;
17947;SDS011;9099;47.958;11.366;2023-09-18T05:45:40;4.18;;;2.25;;
17947;SDS011;9099;47.958;11.366;2023-09-18T05:48:07;3.55;;;2.38;;
17947;SDS011;9099;47.958;11.366;2023-09-18T05:50:34;2.35;;;2.15;;
17947;SDS011;9099;47.958;11.366;2023-09-18T05:53:02;3.65;;;2.30;;
17947;SDS011;9099;47.958;11.366;2023-09-18T05:55:30;4.05;;;2.80;;
17947;SDS011;9099;47.958;11.366;2023-09-18T05:58:00;4.32;;;2.60;;
17947;SDS011;9099;47.958;11.366;2023-09-18T06:00:29;2.60;;;2.17;;
17947;SDS011;9099;47.958;11.366;2023-09-18T06:02:57;3.42;;;2.42;;
17947;SDS011;9099;47.958;11.366;2023-09-18T06:05:24;5.53;;;2.40;;
17947;SDS011;9099;47.958;11.366;2023-09-18T06:07:51;4.95;;;2.13;;
17947;SDS011;9099;47.958;11.366;2023-09-18T06:10:18;3.05;;;2.20;;
17947;SDS011;9099;47.958;11.366;2023-09-18T06:12:45;2.35;;;2.10;;
17947;SDS011;9099;47.958;11.366;2023-09-18T06:15:12;2.72;;;2.17;;
17947;SDS011;9099;47.958;11.366;2023-09-18T06:17:41;5.72;;;2.10;;
17947;SDS011;9099;47.958;11.366;2023-09-18T06:20:09;2.30;;;2.10;;
17947;SDS011;9099;47.958;11.366;2023-09-18T06:22:38;2.83;;;2.47;;
17947;SDS011;9099;47.958;11.366;2023-09-18T06:25:05;3.53;;;2.25;;
17947;SDS011;9099;47.958;11.366;2023-09-18T06:27:35;4.85;;;2.15;;
17947;SDS011;9099;47.958;11.366;2023-09-18T06:30:02;3.90;;;2.05;;
17947;SDS011;9099;47.958;11.366;2023-09-18T06:32:29;4.07;;;2.30;;
17947;SDS011;9099;47.958;11.366;2023-09-18T06:34:58;2.63;;;2.17;;
17947;SDS011;9099;47.958;11.366;2023-09-18T06:37:25;2.40;;;2.08;;
17947;SDS011;9099;47.958;11.366;2023-09-18T06:39:52;3.72;;;2.03;;
17947;SDS011;9099;47.958;11.366;2023-09-18T06:42:18;4.53;;;2.35;;
17947;SDS011;9099;47.958;11.366;2023-09-18T06:44:45;2.80;;;2.47;;
17947;SDS011;9099;47.958;11.366;2023-09-18T06:47:12;3.47;;;2.28;;
17947;SDS011;9099;47.958;11.366;2023-09-18T06:49:40;3.95;;;2.47;;
17947;SDS011;9099;47.958;11.366;2023-09-18T06:52:09;5.53;;;2.50;;
17947;SDS011;9099;47.958;11.366;2023-09-18T06:54:36;3.78;;;2.28;;
17947;SDS011;9099;47.958;11.366;2023-09-18T06:57:03;4.20;;;2.70;;
17947;SDS011;9099;47.958;11.366;2023-09-18T06:59:30;3.00;;;2.45;;
17947;SDS011;9099;47.958;11.366;2023-09-18T07:01:59;5.78;;;2.90;;
17947;SDS011;9099;47.958;11.366;2023-09-18T07:04:27;3.40;;;2.35;;
17947;SDS011;9099;47.958;11.366;2023-09-18T07:06:54;9.75;;;3.40;;
17947;SDS011;9099;47.958;11.366;2023-09-18T07:09:23;16.83;;;4.18;;
17947;SDS011;9099;47.958;11.366;2023-09-18T07:11:51;5.85;;;2.67;;
17947;SDS011;9099;47.958;11.366;2023-09-18T07:14:18;3.85;;;2.55;;
17947;SDS011;9099;47.958;11.366;2023-09-18T07:16:44;6.68;;;3.00;;
17947;SDS011;9099;47.958;11.366;2023-09-18T07:19:11;5.22;;;2.83;;
17947;SDS011;9099;47.958;11.366;2023-09-18T07:21:42;8.68;;;2.88;;
17947;SDS011;9099;47.958;11.366;2023-09-18T07:24:09;8.15;;;3.15;;
17947;SDS011;9099;47.958;11.366;2023-09-18T07:26:43;6.68;;;2.90;;
17947;SDS011;9099;47.958;11.366;2023-09-18T07:29:11;14.95;;;4.07;;
17947;SDS011;9099;47.958;11.366;2023-09-18T07:31:40;10.80;;;3.28;;
17947;SDS011;9099;47.958;11.366;2023-09-18T07:34:07;6.72;;;2.85;;
17947;SDS011;9099;47.958;11.366;2023-09-18T07:36:34;6.63;;;3.22;;
17947;SDS011;9099;47.958;11.366;2023-09-18T07:39:01;7.07;;;2.90;;
17947;SDS011;9099;47.958;11.366;2023-09-18T07:41:29;10.02;;;3.08;;
17947;SDS011;9099;47.958;11.366;2023-09-18T07:43:57;8.20;;;3.40;;
17947;SDS011;9099;47.958;11.366;2023-09-18T07:46:24;8.10;;;3.10;;
17947;SDS011;9099;47.958;11.366;2023-09-18T07:48:51;4.57;;;2.75;;
17947;SDS011;9099;47.958;11.366;2023-09-18T07:51:18;8.85;;;3.08;;
17947;SDS011;9099;47.958;11.366;2023-09-18T07:53:45;8.07;;;3.05;;
17947;SDS011;9099;47.958;11.366;2023-09-18T07:56:12;10.02;;;2.60;;
17947;SDS011;9099;47.958;11.366;2023-09-18T07:58:39;5.75;;;2.72;;
17947;SDS011;9099;47.958;11.366;2023-09-18T08:01:07;7.68;;;3.00;;
17947;SDS011;9099;47.958;11.366;2023-09-18T08:03:35;7.05;;;3.03;;
17947;SDS011;9099;47.958;11.366;2023-09-18T08:06:02;10.02;;;2.78;;
17947;SDS011;9099;47.958;11.366;2023-09-18T08:08:30;8.13;;;2.88;;
17947;SDS011;9099;47.958;11.366;2023-09-18T08:10:58;9.55;;;2.75;;
17947;SDS011;9099;47.958;11.366;2023-09-18T08:13:28;7.28;;;2.70;;
17947;SDS011;9099;47.958;11.366;2023-09-18T08:15:55;7.88;;;2.78;;
17947;SDS011;9099;47.958;11.366;2023-09-18T08:18:23;4.93;;;2.50;;
17947;SDS011;9099;47.958;11.366;2023-09-18T08:20:52;4.93;;;2.50;;
17947;SDS011;9099;47.958;11.366;2023-09-18T08:23:19;6.80;;;2.60;;
17947;SDS011;9099;47.958;11.366;2023-09-18T08:25:46;6.68;;;2.72;;
17947;SDS011;9099;47.958;11.366;2023-09-18T08:28:15;5.63;;;2.42;;
17947;SDS011;9099;47.958;11.366;2023-09-18T08:30:42;4.97;;;2.60;;
17947;SDS011;9099;47.958;11.366;2023-09-18T08:33:12;7.10;;;2.88;;
17947;SDS011;9099;47.958;11.366;2023-09-18T08:35:40;6.28;;;2.80;;
17947;SDS011;9099;47.958;11.366;2023-09-18T08:38:07;5.55;;;2.35;;
17947;SDS011;9099;47.958;11.366;2023-09-18T08:40:34;6.32;;;2.53;;
17947;SDS011;9099;47.958;11.366;2023-09-18T08:43:01;6.95;;;2.60;;
17947;SDS011;9099;47.958;11.366;2023-09-18T08:45:31;8.07;;;2.60;;
17947;SDS011;9099;47.958;11.366;2023-09-18T08:48:02;6.03;;;2.42;;
17947;SDS011;9099;47.958;11.366;2023-09-18T08:50:29;5.60;;;2.42;;
17947;SDS011;9099;47.958;11.366;2023-09-18T08:52:58;6.25;;;2.60;;
17947;SDS011;9099;47.958;11.366;2023-09-18T08:55:26;9.30;;;2.83;;
17947;SDS011;9099;47.958;11.366;2023-09-18T08:57:53;6.95;;;2.97;;
17947;SDS011;9099;47.958;11.366;2023-09-18T09:00:24;5.97;;;2.70;;
17947;SDS011;9099;47.958;11.366;2023-09-18T09:02:51;4.50;;;2.33;;
17947;SDS011;9099;47.958;11.366;2023-09-18T09:05:19;7.78;;;2.85;;
17947;SDS011;9099;47.958;11.366;2023-09-18T09:07:46;5.70;;;2.90;;
17947;SDS011;9099;47.958;11.366;2023-09-18T09:10:16;7.03;;;2.97;;
17947;SDS011;9099;47.958;11.366;2023-09-18T09:12:46;5.63;;;2.53;;
17947;SDS011;9099;47.958;11.366;2023-09-18T09:15:15;7.60;;;3.00;;
17947;SDS011;9099;47.958;11.366;2023-09-18T09:17:42;6.47;;;2.53;;
17947;SDS011;9099;47.958;11.366;2023-09-18T09:20:09;4.90;;;2.22;;
17947;SDS011;9099;47.958;11.366;2023-09-18T09:22:37;8.93;;;2.53;;
17947;SDS011;9099;47.958;11.366;2023-09-18T09:25:07;3.55;;;2.25;;
17947;SDS011;9099;47.958;11.366;2023-09-18T09:27:51;7.35;;;2.70;;
17947;SDS011;9099;47.958;11.366;2023-09-18T09:30:19;7.28;;;2.70;;
17947;SDS011;9099;47.958;11.366;2023-09-18T09:32:47;6.15;;;2.60;;
17947;SDS011;9099;47.958;11.366;2023-09-18T09:35:19;9.95;;;2.90;;
17947;SDS011;9099;47.958;11.366;2023-09-18T09:37:47;7.85;;;2.65;;
17947;SDS011;9099;47.958;11.366;2023-09-18T09:40:16;6.63;;;3.20;;
17947;SDS011;9099;47.958;11.366;2023-09-18T09:42:47;7.70;;;2.60;;
17947;SDS011;9099;47.958;11.366;2023-09-18T09:45:17;7.30;;;2.65;;
17947;SDS011;9099;47.958;11.366;2023-09-18T09:47:44;9.18;;;2.95;;
17947;SDS011;9099;47.958;11.366;2023-09-18T09:50:12;5.63;;;2.70;;
17947;SDS011;9099;47.958;11.366;2023-09-18T09:52:41;7.97;;;3.05;;
17947;SDS011;9099;47.958;11.366;2023-09-18T09:55:19;7.93;;;2.85;;
17947;SDS011;9099;47.958;11.366;2023-09-18T09:57:50;7.70;;;2.72;;
17947;SDS011;9099;47.958;11.366;2023-09-18T10:00:18;6.95;;;2.60;;
17947;SDS011;9099;47.958;11.366;2023-09-18T10:02:51;6.30;;;2.72;;
17947;SDS011;9099;47.958;11.366;2023-09-18T10:05:24;5.45;;;2.90;;
17947;SDS011;9099;47.958;11.366;2023-09-18T10:07:54;7.20;;;2.70;;
17947;SDS011;9099;47.958;11.366;2023-09-18T10:10:24;9.63;;;2.72;;
17947;SDS011;9099;47.958;11.366;2023-09-18T10:12:53;8.82;;;2.53;;
17947;SDS011;9099;47.958;11.366;2023-09-18T10:15:22;6.38;;;2.70;;
17947;SDS011;9099;47.958;11.366;2023-09-18T10:17:50;4.47;;;2.50;;
17947;SDS011;9099;47.958;11.366;2023-09-18T10:20:24;7.45;;;3.17;;
17947;SDS011;9099;47.958;11.366;2023-09-18T10:22:56;9.55;;;2.50;;
17947;SDS011;9099;47.958;11.366;2023-09-18T10:25:28;5.55;;;2.53;;
17947;SDS011;9099;47.958;11.366;2023-09-18T10:27:58;6.40;;;2.72;;
17947;SDS011;9099;47.958;11.366;2023-09-18T10:30:28;4.80;;;2.67;;
17947;SDS011;9099;47.958;11.366;2023-09-18T10:32:56;9.65;;;2.55;;
17947;SDS011;9099;47.958;11.366;2023-09-18T10:35:24;5.72;;;2.58;;
17947;SDS011;9099;47.958;11.366;2023-09-18T10:37:51;8.35;;;3.38;;
17947;SDS011;9099;47.958;11.366;2023-09-18T10:40:20;6.97;;;2.58;;
17947;SDS011;9099;47.958;11.366;2023-09-18T10:42:48;5.68;;;2.45;;
17947;SDS011;9099;47.958;11.366;2023-09-18T10:45:19;6.75;;;2.63;;
17947;SDS011;9099;47.958;11.366;2023-09-18T10:47:47;5.05;;;2.40;;
17947;SDS011;9099;47.958;11.366;2023-09-18T10:50:22;7.65;;;2.40;;
17947;SDS011;9099;47.958;11.366;2023-09-18T10:52:50;6.50;;;2.60;;
17947;SDS011;9099;47.958;11.366;2023-09-18T10:55:17;6.47;;;2.33;;
17947;SDS011;9099;47.958;11.366;2023-09-18T10:57:50;6.15;;;2.33;;
17947;SDS011;9099;47.958;11.366;2023-09-18T11:00:19;5.57;;;2.20;;
17947;SDS011;9099;47.958;11.366;2023-09-18T11:02:50;6.75;;;2.78;;
17947;SDS011;9099;47.958;11.366;2023-09-18T11:05:30;5.43;;;2.35;;
17947;SDS011;9099;47.958;11.366;2023-09-18T11:10:55;5.50;;;2.20;;
17947;SDS011;9099;47.958;11.366;2023-09-18T11:13:30;5.65;;;2.28;;
17947;SDS011;9099;47.958;11.366;2023-09-18T11:16:02;4.18;;;2.47;;
17947;SDS011;9099;47.958;11.366;2023-09-18T11:18:39;6.47;;;2.22;;
17947;SDS011;9099;47.958;11.366;2023-09-18T11:21:09;4.13;;;2.10;;
17947;SDS011;9099;47.958;11.366;2023-09-18T11:23:38;4.30;;;1.98;;
17947;SDS011;9099;47.958;11.366;2023-09-18T11:26:08;4.93;;;1.83;;
17947;SDS011;9099;47.958;11.366;2023-09-18T11:28:36;4.22;;;1.80;;
17947;SDS011;9099;47.958;11.366;2023-09-18T11:31:05;3.42;;;1.70;;
17947;SDS011;9099;47.958;11.366;2023-09-18T11:33:36;3.80;;;1.60;;
17947;SDS011;9099;47.958;11.366;2023-09-18T11:36:05;2.38;;;1.42;;
17947;SDS011;9099;47.958;11.366;2023-09-18T11:38:51;4.22;;;1.33;;
17947;SDS011;9099;47.958;11.366;2023-09-18T11:41:19;2.97;;;1.48;;
17947;SDS011;9099;47.958;11.366;2023-09-18T11:43:49;4.25;;;1.90;;
17947;SDS011;9099;47.958;11.366;2023-09-18T11:46:21;1.48;;;1.30;;
17947;SDS011;9099;47.958;11.366;2023-09-18T11:48:50;2.30;;;1.23;;
17947;SDS011;9099;47.958;11.366;2023-09-18T11:51:22;2.17;;;1.10;;
17947;SDS011;9099;47.958;11.366;2023-09-18T11:53:50;2.97;;;1.17;;
17947;SDS011;9099;47.958;11.366;2023-09-18T11:56:21;2.17;;;1.02;;
17947;SDS011;9099;47.958;11.366;2023-09-18T11:58:48;1.77;;;1.20;;
17947;SDS011;9099;47.958;11.366;2023-09-18T12:01:15;2.47;;;1.25;;
17947;SDS011;9099;47.958;11.366;2023-09-18T12:03:45;2.67;;;0.90;;
17947;SDS011;9099;47.958;11.366;2023-09-18T12:06:13;1.90;;;1.00;;
17947;SDS011;9099;47.958;11.366;2023-09-18T12:08:41;2.30;;;1.13;;
17947;SDS011;9099;47.958;11.366;2023-09-18T12:11:08;0.95;;;0.77;;
17947;SDS011;9099;47.958;11.366;2023-09-18T12:13:35;3.35;;;1.10;;
17947;SDS011;9099;47.958;11.366;2023-09-18T12:16:04;1.27;;;0.90;;
17947;SDS011;9099;47.958;11.366;2023-09-18T12:18:31;2.55;;;0.85;;
17947;SDS011;9099;47.958;11.366;2023-09-18T12:21:01;1.27;;;0.70;;
17947;SDS011;9099;47.958;11.366;2023-09-18T12:23:36;2.47;;;1.00;;
17947;SDS011;9099;47.958;11.366;2023-09-18T12:26:03;1.33;;;1.00;;
17947;SDS011;9099;47.958;11.366;2023-09-18T12:28:32;0.90;;;0.70;;
17947;SDS011;9099;47.958;11.366;2023-09-18T12:31:00;2.15;;;0.93;;
17947;SDS011;9099;47.958;11.366;2023-09-18T12:33:30;2.10;;;1.20;;
17947;SDS011;9099;47.958;11.366;2023-09-18T12:36:01;1.88;;;0.80;;
17947;SDS011;9099;47.958;11.366;2023-09-18T12:38:30;0.70;;;0.70;;
17947;SDS011;9099;47.958;11.366;2023-09-18T12:40:57;1.98;;;0.93;;
17947;SDS011;9099;47.958;11.366;2023-09-18T12:43:32;1.58;;;1.30;;
17947;SDS011;9099;47.958;11.366;2023-09-18T12:46:00;2.65;;;1.10;;
17947;SDS011;9099;47.958;11.366;2023-09-18T12:48:29;1.65;;;1.20;;
17947;SDS011;9099;47.958;11.366;2023-09-18T12:51:03;2.25;;;1.05;;
17947;SDS011;9099;47.958;11.366;2023-09-18T12:53:30;1.65;;;0.90;;
17947;SDS011;9099;47.958;11.366;2023-09-18T12:56:05;1.30;;;1.17;;
17947;SDS011;9099;47.958;11.366;2023-09-18T12:58:33;2.10;;;1.30;;
17947;SDS011;9099;47.958;11.366;2023-09-18T13:01:03;3.50;;;1.00;;
17947;SDS011;9099;47.958;11.366;2023-09-18T13:03:33;3.30;;;1.20;;
17947;SDS011;9099;47.958;11.366;2023-09-18T13:06:08;2.33;;;1.15;;
17947;SDS011;9099;47.958;11.366;2023-09-18T13:08:36;2.45;;;1.40;;
17947;SDS011;9099;47.958;11.366;2023-09-18T13:11:03;1.20;;;1.10;;
17947;SDS011;9099;47.958;11.366;2023-09-18T13:13:31;1.10;;;0.90;;
17947;SDS011;9099;47.958;11.366;2023-09-18T13:15:58;1.30;;;1.10;;
17947;SDS011;9099;47.958;11.366;2023-09-18T13:18:29;2.08;;;0.70;;
17947;SDS011;9099;47.958;11.366;2023-09-18T13:20:56;1.88;;;0.77;;
17947;SDS011;9099;47.958;11.366;2023-09-18T13:23:28;1.27;;;0.85;;
17947;SDS011;9099;47.958;11.366;2023-09-18T13:25:59;1.00;;;1.00;;
17947;SDS011;9099;47.958;11.366;2023-09-18T13:28:28;1.15;;;0.90;;
17947;SDS011;9099;47.958;11.366;2023-09-18T13:30:56;1.95;;;0.80;;
17947;SDS011;9099;47.958;11.366;2023-09-18T13:33:24;1.15;;;0.90;;
17947;SDS011;9099;47.958;11.366;2023-09-18T13:35:52;0.95;;;0.80;;
17947;SDS011;9099;47.958;11.366;2023-09-18T13:38:21;2.80;;;0.90;;
17947;SDS011;9099;47.958;11.366;2023-09-18T13:40:49;0.70;;;0.70;;
17947;SDS011;9099;47.958;11.366;2023-09-18T13:43:16;1.42;;;0.70;;
17947;SDS011;9099;47.958;11.366;2023-09-18T13:45:47;1.08;;;0.88;;
17947;SDS011;9099;47.958;11.366;2023-09-18T13:48:16;0.85;;;0.70;;
17947;SDS011;9099;47.958;11.366;2023-09-18T13:50:44;1.25;;;0.75;;
17947;SDS011;9099;47.958;11.366;2023-09-18T13:53:11;1.00;;;0.80;;
17947;SDS011;9099;47.958;11.366;2023-09-18T13:55:38;1.15;;;0.90;;
17947;SDS011;9099;47.958;11.366;2023-09-18T13:58:07;1.85;;;0.75;;
17947;SDS011;9099;47.958;11.366;2023-09-18T14:00:34;1.05;;;0.65;;
17947;SDS011;9099;47.958;11.366;2023-09-18T14:03:01;1.00;;;0.75;;
17947;SDS011;9099;47.958;11.366;2023-09-18T14:05:29;1.75;;;0.90;;
17947;SDS011;9099;47.958;11.366;2023-09-18T14:07:56;1.70;;;0.90;;
17947;SDS011;9099;47.958;11.366;2023-09-18T14:10:25;0.93;;;0.80;;
17947;SDS011;9099;47.958;11.366;2023-09-18T14:12:53;0.63;;;0.63;;
17947;SDS011;9099;47.958;11.366;2023-09-18T14:15:21;0.57;;;0.57;;
17947;SDS011;9099;47.958;11.366;2023-09-18T14:17:48;1.63;;;0.75;;
17947;SDS011;9099;47.958;11.366;2023-09-18T14:20:15;1.45;;;0.60;;
17947;SDS011;9099;47.958;11.366;2023-09-18T14:22:43;0.50;;;0.50;;
17947;SDS011;9099;47.958;11.366;2023-09-18T14:25:11;0.88;;;0.73;;
17947;SDS011;9099;47.958;11.366;2023-09-18T14:27:39;0.60;;;0.60;;
17947;SDS011;9099;47.958;11.366;2023-09-18T14:30:06;1.45;;;0.80;;
17947;SDS011;9099;47.958;11.366;2023-09-18T14:32:36;1.05;;;0.82;;
17947;SDS011;9099;47.958;11.366;2023-09-18T14:35:03;1.88;;;0.90;;
17947;SDS011;9099;47.958;11.366;2023-09-18T14:37:33;0.50;;;0.50;;
17947;SDS011;9099;47.958;11.366;2023-09-18T14:40:01;1.08;;;0.80;;
17947;SDS011;9099;47.958;11.366;2023-09-18T14:42:28;3.05;;;1.00;;
17947;SDS011;9099;47.958;11.366;2023-09-18T14:44:55;0.65;;;0.65;;
17947;SDS011;9099;47.958;11.366;2023-09-18T14:47:22;1.17;;;0.70;;
17947;SDS011;9099;47.958;11.366;2023-09-18T14:49:50;0.80;;;0.80;;
17947;SDS011;9099;47.958;11.366;2023-09-18T14:52:17;1.17;;;0.93;;
17947;SDS011;9099;47.958;11.366;2023-09-18T14:54:48;1.80;;;0.70;;
17947;SDS011;9099;47.958;11.366;2023-09-18T14:57:15;0.85;;;0.73;;